createdAt,value
2022-10-25T00:01:36.607Z,100447.53
2022-10-25T00:04:04.762Z,100449.34
2022-10-25T00:06:32.527Z,100432.50
2022-10-25T00:09:01.000Z,100432.53
2022-10-25T00:11:31.978Z,100439.63
2022-10-25T00:14:04.819Z,100441.44
2022-10-25T00:16:37.788Z,100442.31
2022-10-25T00:19:05.993Z,100444.91
2022-10-25T00:21:33.763Z,100429.81
2022-10-25T00:24:01.686Z,100431.53
2022-10-25T00:26:29.465Z,100435.06
2022-10-25T00:28:57.757Z,100438.59
2022-10-25T00:31:25.606Z,100431.50
2022-10-25T00:33:53.479Z,100442.09
2022-10-25T00:36:24.868Z,100436.69
2022-10-25T00:38:54.626Z,100444.63
2022-10-25T00:41:26.878Z,100468.47
2022-10-25T00:44:33.646Z,100460.47
2022-10-25T00:47:11.847Z,100470.19
2022-10-25T00:49:40.738Z,100466.66
2022-10-25T00:52:09.074Z,100478.97
2022-10-25T00:54:44.702Z,100475.44
2022-10-25T00:57:18.588Z,100488.59
2022-10-25T00:59:47.476Z,100496.53
2022-10-25T01:02:16.714Z,100500.06
2022-10-25T01:04:45.006Z,100500.94
2022-10-25T01:07:12.829Z,100506.22
2022-10-25T01:09:41.119Z,100510.63
2022-10-25T01:12:09.073Z,100518.59
2022-10-25T01:14:43.286Z,100516.75
2022-10-25T01:17:36.695Z,100529.06
2022-10-25T01:20:28.778Z,100519.38
2022-10-25T01:23:21.519Z,100516.66
2022-10-25T01:26:07.848Z,100511.34
2022-10-25T01:29:04.197Z,100524.56
2022-10-25T01:31:51.078Z,100529.00
2022-10-25T01:35:07.184Z,100534.31
2022-10-25T01:38:03.566Z,100534.31
2022-10-25T01:40:39.112Z,100521.88
2022-10-25T01:43:19.172Z,100527.22
2022-10-25T01:46:03.563Z,100513.88
2022-10-25T01:48:48.361Z,100527.09
2022-10-25T01:51:18.627Z,100535.03
2022-10-25T01:53:51.304Z,100541.28
2022-10-25T01:56:33.757Z,100539.53
2022-10-25T01:59:26.746Z,100549.31
2022-10-25T02:02:23.012Z,100555.50
2022-10-25T02:04:59.572Z,100554.63
2022-10-25T02:07:42.471Z,100566.13
2022-10-25T02:10:15.209Z,100570.59
2022-10-25T02:12:53.671Z,100575.91
2022-10-25T02:16:01.200Z,100577.66
2022-10-25T02:18:35.863Z,100576.78
2022-10-25T02:21:06.252Z,100571.50
2022-10-25T02:23:36.493Z,100575.97
2022-10-25T02:26:09.529Z,100575.91
2022-10-25T02:28:40.715Z,100576.78
2022-10-25T02:31:14.734Z,100580.31
2022-10-25T02:33:48.018Z,100582.06
2022-10-25T02:36:22.710Z,100574.97
2022-10-25T02:38:52.911Z,100582.91
2022-10-25T02:41:22.306Z,100580.25
2022-10-25T02:43:50.283Z,100582.84
2022-10-25T02:46:21.981Z,100589.88
2022-10-25T02:48:51.615Z,100589.91
2022-10-25T02:51:20.049Z,100590.78
2022-10-25T02:53:47.857Z,100600.53
2022-10-25T02:56:20.757Z,100590.75
2022-10-25T02:58:51.454Z,100588.91
2022-10-25T03:01:21.465Z,100593.28
2022-10-25T03:03:49.849Z,100603.91
2022-10-25T03:06:18.312Z,100608.31
2022-10-25T03:08:46.652Z,100605.66
2022-10-25T03:11:16.660Z,100608.31
2022-10-25T03:13:44.584Z,100612.69
2022-10-25T03:16:12.370Z,100615.38
2022-10-25T03:18:40.364Z,100617.09
2022-10-25T03:21:08.397Z,100617.97
2022-10-25T03:23:36.574Z,100618.84
2022-10-25T03:26:05.069Z,100614.34
2022-10-25T03:28:32.990Z,100623.22
2022-10-25T03:31:00.796Z,100631.13
2022-10-25T03:33:28.872Z,100630.28
2022-10-25T03:35:57.503Z,100633.72
2022-10-25T03:38:25.291Z,100640.81
2022-10-25T03:40:53.878Z,100647.84
2022-10-25T03:45:54.608Z,100648.69
2022-10-25T03:48:22.507Z,100653.13
2022-10-25T03:50:50.353Z,100655.72
2022-10-25T03:53:18.090Z,100659.22
2022-10-25T03:55:45.978Z,100667.16
2022-10-25T03:58:13.810Z,100666.25
2022-10-25T04:00:42.312Z,100667.13
2022-10-25T04:03:10.304Z,100672.44
2022-10-25T04:05:38.123Z,100669.69
2022-10-25T04:08:06.347Z,100683.91
2022-10-25T04:10:34.648Z,100674.19
2022-10-25T04:13:02.471Z,100673.19
2022-10-25T04:15:30.369Z,100682.94
2022-10-25T04:17:58.110Z,100679.44
2022-10-25T04:20:25.904Z,100688.22
2022-10-25T04:22:57.847Z,100682.81
2022-10-25T04:25:28.027Z,100690.69
2022-10-25T04:27:55.940Z,100681.06
2022-10-25T04:30:23.716Z,100686.22
2022-10-25T04:32:51.836Z,100678.28
2022-10-25T04:35:19.875Z,100680.88
2022-10-25T04:37:51.929Z,100670.34
2022-10-25T04:40:24.059Z,100679.25
2022-10-25T04:42:54.609Z,100687.25
2022-10-25T04:45:25.244Z,100675.66
2022-10-25T04:47:53.303Z,100688.03
2022-10-25T04:50:22.267Z,100695.16
2022-10-25T04:52:53.059Z,100692.41
2022-10-25T04:55:21.015Z,100687.09
2022-10-25T04:57:49.122Z,100696.84
2022-10-25T05:00:17.642Z,100694.28
2022-10-25T05:02:45.828Z,100701.25
2022-10-25T05:05:14.093Z,100708.28
2022-10-25T05:07:41.938Z,100711.75
2022-10-25T05:10:10.168Z,100719.66
2022-10-25T05:12:38.851Z,100726.75
2022-10-25T05:15:08.125Z,100731.06
2022-10-25T05:17:35.970Z,100726.75
2022-10-25T05:20:04.478Z,100734.56
2022-10-25T05:22:32.285Z,100721.16
2022-10-25T05:25:00.366Z,100717.63
2022-10-25T05:27:28.406Z,100716.69
2022-10-25T05:29:56.242Z,100730.06
2022-10-25T05:32:24.017Z,100725.56
2022-10-25T05:34:51.789Z,100722.91
2022-10-25T05:37:19.609Z,100721.09
2022-10-25T05:39:49.204Z,100725.59
2022-10-25T05:42:16.917Z,100721.97
2022-10-25T05:44:44.686Z,100719.22
2022-10-25T05:47:12.762Z,100731.69
2022-10-25T05:49:42.397Z,100737.00
2022-10-25T05:52:10.803Z,100738.72
2022-10-25T05:54:38.743Z,100730.72
2022-10-25T05:57:06.506Z,100734.25
2022-10-25T05:59:34.277Z,100740.41
2022-10-25T06:02:02.149Z,100738.63
2022-10-25T06:04:30.366Z,100746.50
2022-10-25T06:06:58.154Z,100750.06
2022-10-25T06:09:25.953Z,100745.59
2022-10-25T06:11:53.773Z,100744.59
2022-10-25T06:14:21.566Z,100749.06
2022-10-25T06:16:49.465Z,100746.38
2022-10-25T06:19:17.220Z,100749.81
2022-10-25T06:21:45.091Z,100740.91
2022-10-25T06:24:13.255Z,100748.84
2022-10-25T06:26:40.942Z,100754.13
2022-10-25T06:29:09.434Z,100749.66
2022-10-25T06:31:38.675Z,100749.75
2022-10-25T06:34:06.469Z,100759.47
2022-10-25T06:36:34.673Z,100767.41
2022-10-25T06:39:05.873Z,100769.19
2022-10-25T06:41:37.152Z,100784.25
2022-10-25T06:44:07.144Z,100800.31
2022-10-25T06:47:11.644Z,100805.19
2022-10-25T06:49:27.665Z,100830.38
2022-10-25T06:51:55.468Z,100818.81
2022-10-25T06:54:25.528Z,100820.50
2022-10-25T06:56:53.408Z,100821.41
2022-10-25T06:59:21.397Z,100829.34
2022-10-25T07:01:50.340Z,100840.94
2022-10-25T07:04:18.329Z,100864.25
2022-10-25T07:06:48.759Z,100866.34
2022-10-25T07:09:19.210Z,100871.78
2022-10-25T07:11:46.922Z,100889.78
2022-10-25T07:14:15.957Z,100880.16
2022-10-25T07:16:43.777Z,100886.63
2022-10-25T07:19:11.607Z,100890.31
2022-10-25T07:21:39.484Z,100888.69
2022-10-25T07:24:10.780Z,100890.66
2022-10-25T07:26:38.810Z,100885.44
2022-10-25T07:29:06.675Z,100890.88
2022-10-25T07:31:41.383Z,100889.22
2022-10-25T07:37:13.607Z,100895.63
2022-10-25T07:39:41.886Z,100903.69
2022-10-25T07:42:09.773Z,100902.06
2022-10-25T07:44:37.631Z,100899.44
2022-10-25T07:47:05.530Z,100893.28
2022-10-25T07:49:33.679Z,100888.03
2022-10-25T07:52:01.569Z,100892.53
2022-10-25T07:54:30.185Z,100888.16
2022-10-25T07:56:58.317Z,100878.41
2022-10-25T07:59:27.268Z,100880.19
2022-10-25T08:01:55.573Z,100863.34
2022-10-25T08:04:23.589Z,100873.13
2022-10-25T08:06:51.639Z,100866.94
2022-10-25T08:09:37.203Z,100862.50
2022-10-25T08:12:05.926Z,100863.41
2022-10-25T08:14:36.515Z,100836.78
2022-10-25T08:17:08.930Z,100828.75
2022-10-25T08:19:37.174Z,100824.28
2022-10-25T08:22:05.233Z,100840.22
2022-10-25T08:24:35.092Z,100839.31
2022-10-25T08:27:03.185Z,100857.91
2022-10-25T08:29:33.256Z,100849.91
2022-10-25T08:32:01.781Z,100878.31
2022-10-25T08:34:32.423Z,100865.88
2022-10-25T08:37:01.384Z,100876.53
2022-10-25T08:39:29.705Z,100861.47
2022-10-25T08:42:02.580Z,100872.13
2022-10-25T08:44:45.639Z,100901.44
2022-10-25T08:47:33.500Z,100915.66
2022-10-25T08:50:21.817Z,100914.78
2022-10-25T08:52:56.885Z,100905.94
2022-10-25T08:55:41.711Z,100915.72
2022-10-25T08:58:37.180Z,100924.63
2022-10-25T09:01:19.685Z,100914.06
2022-10-25T09:03:47.609Z,100902.47
2022-10-25T09:06:46.341Z,100906.06
2022-10-25T09:09:33.998Z,100897.19
2022-10-25T09:12:22.926Z,100891.00
2022-10-25T09:15:04.819Z,100885.59
2022-10-25T09:17:48.794Z,100878.38
2022-10-25T09:20:41.779Z,100865.94
2022-10-25T09:23:31.092Z,100847.31
2022-10-25T09:26:04.285Z,100843.81
2022-10-25T09:29:16.284Z,100844.78
2022-10-25T09:31:54.500Z,100843.91
2022-10-25T09:34:23.928Z,100832.41
2022-10-25T09:37:25.312Z,100841.25
2022-10-25T09:40:00.195Z,100855.44
2022-10-25T09:42:51.547Z,100874.94
2022-10-25T09:45:51.812Z,100881.09
2022-10-25T09:48:43.924Z,100889.06
2022-10-25T09:51:18.328Z,100884.66
2022-10-25T09:53:47.421Z,100894.38
2022-10-25T09:56:17.329Z,100887.25
2022-10-25T09:58:49.130Z,100882.78
2022-10-25T10:01:25.892Z,100881.94
2022-10-25T10:04:14.604Z,100884.56
2022-10-25T10:06:43.298Z,100881.81
2022-10-25T10:09:13.525Z,100867.66
2022-10-25T10:11:42.233Z,100879.09
2022-10-25T10:14:33.536Z,100871.97
2022-10-25T10:17:02.352Z,100868.47
2022-10-25T10:19:30.886Z,100893.16
2022-10-25T10:22:09.479Z,100868.28
2022-10-25T10:24:40.746Z,100872.69
2022-10-25T10:27:25.669Z,100847.00
2022-10-25T10:30:18.417Z,100853.13
2022-10-25T10:32:46.381Z,100831.91
2022-10-25T10:35:34.639Z,100834.50
2022-10-25T10:38:26.395Z,100822.09
2022-10-25T10:41:26.224Z,100822.06
2022-10-25T10:44:14.555Z,100828.22
2022-10-25T10:46:47.506Z,100820.13
2022-10-25T10:49:16.439Z,100807.66
2022-10-25T10:51:45.903Z,100804.06
2022-10-25T10:54:30.328Z,100810.22
2022-10-25T10:57:07.432Z,100781.72
2022-10-25T10:59:53.313Z,100794.03
2022-10-25T11:02:42.732Z,100775.31
2022-10-25T11:05:28.900Z,100764.50
2022-10-25T11:08:08.584Z,100796.38
2022-10-25T11:10:37.926Z,100791.13
2022-10-25T11:13:18.133Z,100795.53
2022-10-25T11:16:08.826Z,100790.16
2022-10-25T11:19:08.470Z,100788.31
2022-10-25T11:22:22.628Z,100792.66
2022-10-25T11:25:14.801Z,100717.97
2022-10-25T11:28:32.599Z,100745.41
2022-10-25T11:31:38.108Z,100749.00
2022-10-25T11:34:37.192Z,100736.56
2022-10-25T11:37:31.661Z,100745.38
2022-10-25T11:40:27.447Z,100756.94
2022-10-25T11:43:34.484Z,100718.59
2022-10-25T11:46:22.549Z,100736.13
2022-10-25T11:49:15.053Z,100730.53
2022-10-25T11:51:48.665Z,100707.34
2022-10-25T11:54:40.885Z,100704.59
2022-10-25T11:57:49.355Z,100724.00
2022-10-25T12:00:35.792Z,100733.66
2022-10-25T12:03:53.364Z,100696.88
2022-10-25T12:07:02.644Z,100696.19
2022-10-25T12:09:50.496Z,100716.69
2022-10-25T12:12:25.120Z,100687.53
2022-10-25T12:14:58.617Z,100654.91
2022-10-25T12:17:31.353Z,100690.38
2022-10-25T12:20:04.739Z,100701.00
2022-10-25T12:22:45.251Z,100610.19
2022-10-25T12:26:05.746Z,100583.41
2022-10-25T12:28:45.455Z,100669.22
2022-10-25T12:31:27.695Z,100651.66
2022-10-25T12:34:19.982Z,100558.81
2022-10-25T12:36:56.892Z,100511.13
2022-10-25T12:39:40.825Z,100470.66
2022-10-25T12:42:37.771Z,100495.28
2022-10-25T12:45:46.228Z,100548.50
2022-10-25T12:48:23.715Z,100508.88
2022-10-25T12:51:12.979Z,100579.72
2022-10-25T12:54:08.898Z,100559.81
2022-10-25T12:57:05.834Z,100511.75
2022-10-25T12:59:48.658Z,100530.78
2022-10-25T13:03:17.054Z,100567.75
2022-10-25T13:06:15.518Z,100526.63
2022-10-25T13:08:44.506Z,100531.13
2022-10-25T13:11:13.300Z,100535.88
2022-10-25T13:13:52.552Z,100538.34
2022-10-25T13:16:33.430Z,100533.00
2022-10-25T13:19:49.812Z,100508.38
2022-10-25T13:22:40.483Z,100489.06
2022-10-25T13:25:08.998Z,100466.22
2022-10-25T13:27:37.622Z,100490.34
2022-10-25T13:33:22.693Z,100459.09
2022-10-25T13:35:51.227Z,100458.13
2022-10-25T13:38:35.295Z,100461.56
2022-10-25T13:41:19.986Z,100421.72
2022-10-25T13:44:01.196Z,100464.94
2022-10-25T13:46:39.039Z,100442.13
2022-10-25T13:49:36.192Z,100444.78
2022-10-25T13:52:26.951Z,100450.84
2022-10-25T13:54:56.980Z,100480.78
2022-10-25T13:57:49.825Z,100474.38
2022-10-25T14:00:42.178Z,100458.16
2022-10-25T14:03:09.958Z,100411.47
2022-10-25T14:05:55.921Z,100433.69
2022-10-25T14:08:38.592Z,100368.00
2022-10-25T14:11:33.503Z,100342.94
2022-10-25T14:14:22.750Z,100452.91
2022-10-25T14:16:55.853Z,100472.50
2022-10-25T14:19:37.926Z,100440.53
2022-10-25T14:22:23.360Z,100425.91
2022-10-25T14:24:54.478Z,100345.28
2022-10-25T14:27:33.942Z,100340.03
2022-10-25T14:30:23.564Z,100366.84
2022-10-25T14:33:33.841Z,100381.41
2022-10-25T14:36:06.497Z,100348.88
2022-10-25T14:38:55.314Z,100354.72
2022-10-25T14:41:33.201Z,100370.03
2022-10-25T14:44:02.417Z,100358.13
2022-10-25T14:46:30.999Z,100310.34
2022-10-25T14:49:01.674Z,100297.00
2022-10-25T14:51:41.581Z,100311.59
2022-10-25T14:54:12.375Z,100373.13
2022-10-25T14:56:44.555Z,100304.06
2022-10-25T14:59:28.070Z,100310.50
2022-10-25T15:02:15.870Z,100305.75
2022-10-25T15:04:48.114Z,100286.44
2022-10-25T15:07:40.459Z,100271.38
2022-10-25T15:10:37.439Z,100280.81
2022-10-25T15:13:30.726Z,100270.88
2022-10-25T15:16:03.110Z,100268.94
2022-10-25T15:18:37.121Z,100279.41
2022-10-25T15:21:19.766Z,100262.94
2022-10-25T15:24:19.617Z,100223.19
2022-10-25T15:27:05.905Z,100252.63
2022-10-25T15:29:42.876Z,100268.00
2022-10-25T15:32:18.237Z,100252.19
2022-10-25T15:34:52.311Z,100253.28
2022-10-25T15:37:23.081Z,100288.38
2022-10-25T15:39:58.009Z,100292.34
2022-10-25T15:42:29.318Z,100272.75
2022-10-25T15:44:57.337Z,100301.28
2022-10-25T15:47:31.112Z,100295.97
2022-10-25T15:50:00.356Z,100305.81
2022-10-25T15:52:28.647Z,100287.63
2022-10-25T15:54:56.586Z,100277.28
2022-10-25T15:57:27.352Z,100272.78
2022-10-25T15:59:55.351Z,100261.50
2022-10-25T16:02:28.486Z,100237.47
2022-10-25T16:04:57.568Z,100246.88
2022-10-25T16:07:25.673Z,100255.81
2022-10-25T16:09:53.511Z,100250.91
2022-10-25T16:12:30.527Z,100226.56
2022-10-25T16:14:59.110Z,100234.84
2022-10-25T16:17:28.357Z,100232.44
2022-10-25T16:19:56.264Z,100243.78
2022-10-25T16:22:24.441Z,100252.63
2022-10-25T16:24:52.748Z,100240.31
2022-10-25T16:27:21.252Z,100224.50
2022-10-25T16:29:49.311Z,100203.66
2022-10-25T16:32:18.716Z,100216.34
2022-10-25T16:34:46.944Z,100228.75
2022-10-25T16:37:15.160Z,100213.16
2022-10-25T16:39:43.267Z,100225.84
2022-10-25T16:42:27.710Z,100249.84
2022-10-25T16:44:57.202Z,100234.88
2022-10-25T16:47:25.871Z,100223.72
2022-10-25T16:49:54.090Z,100245.13
2022-10-25T16:52:22.304Z,100257.50
2022-10-25T16:54:50.276Z,100260.34
2022-10-25T16:57:18.223Z,100263.00
2022-10-25T16:59:46.109Z,100265.69
2022-10-25T17:02:32.024Z,100274.41
2022-10-25T17:05:00.534Z,100284.19
2022-10-25T17:07:28.452Z,100274.44
2022-10-25T17:09:57.187Z,100268.28
2022-10-25T17:12:25.191Z,100253.50
2022-10-25T17:14:53.045Z,100254.44
2022-10-25T17:17:21.242Z,100264.16
2022-10-25T17:19:49.140Z,100272.09
2022-10-25T17:22:17.115Z,100260.66
2022-10-25T17:24:44.985Z,100248.34
2022-10-25T17:27:12.779Z,100247.53
2022-10-25T17:29:41.068Z,100246.72
2022-10-25T17:32:08.946Z,100242.38
2022-10-25T17:34:36.893Z,100241.53
2022-10-25T17:37:04.909Z,100253.88
2022-10-25T17:39:33.698Z,100258.31
2022-10-25T17:42:02.349Z,100260.94
2022-10-25T17:44:30.346Z,100259.19
2022-10-25T17:47:00.859Z,100253.94
2022-10-25T17:49:30.948Z,100243.41
2022-10-25T17:51:58.909Z,100252.31
2022-10-25T17:54:26.866Z,100247.94
2022-10-25T17:56:58.636Z,100277.97
2022-10-25T17:59:28.434Z,100270.88
2022-10-25T18:01:57.640Z,100282.41
2022-10-25T18:04:28.023Z,100262.97
2022-10-25T18:06:56.571Z,100260.38
2022-10-25T18:09:25.641Z,100271.00
2022-10-25T18:11:53.628Z,100281.63
2022-10-25T18:14:22.205Z,100264.00
2022-10-25T18:16:51.013Z,100275.50
2022-10-25T18:19:19.407Z,100307.31
2022-10-25T18:21:47.618Z,100303.75
2022-10-25T18:24:16.474Z,100305.50
2022-10-25T18:26:44.485Z,100334.66
2022-10-25T18:29:13.274Z,100348.81
2022-10-25T18:31:41.058Z,100365.63
2022-10-25T18:34:09.330Z,100346.13
2022-10-25T18:36:37.291Z,100337.19
2022-10-25T18:39:06.040Z,100337.16
2022-10-25T18:41:34.981Z,100368.19
2022-10-25T18:44:03.287Z,100377.97
2022-10-25T18:46:32.818Z,100384.16
2022-10-25T18:49:01.213Z,100368.22
2022-10-25T18:51:30.605Z,100373.50
2022-10-25T18:54:01.978Z,100373.53
2022-10-25T18:56:31.467Z,100364.66
2022-10-25T18:59:00.066Z,100356.59
2022-10-25T19:01:32.908Z,100353.03
2022-10-25T19:04:03.820Z,100357.41
2022-10-25T19:06:33.193Z,100366.22
2022-10-25T19:09:03.132Z,100381.28
2022-10-25T19:11:32.958Z,100395.50
2022-10-25T19:14:01.571Z,100403.41
2022-10-25T19:16:29.630Z,100403.34
2022-10-25T19:19:01.939Z,100418.38
2022-10-25T19:21:29.905Z,100413.97
2022-10-25T19:23:57.914Z,100423.69
2022-10-25T19:26:25.825Z,100421.03
2022-10-25T19:28:59.943Z,100426.31
2022-10-25T19:31:28.998Z,100424.59
2022-10-25T19:34:00.605Z,100419.31
2022-10-25T19:36:29.334Z,100429.91
2022-10-25T19:38:57.138Z,100418.47
2022-10-25T19:41:26.053Z,100410.53
2022-10-25T19:43:56.799Z,100406.13
2022-10-25T19:46:24.983Z,100402.53
2022-10-25T19:48:52.975Z,100394.53
2022-10-25T19:51:21.353Z,100393.53
2022-10-25T19:53:49.881Z,100406.84
2022-10-25T19:56:21.623Z,100410.38
2022-10-25T19:58:50.446Z,100391.78
2022-10-25T20:01:24.326Z,100391.75
2022-10-25T20:04:00.864Z,100395.31
2022-10-25T20:06:33.078Z,100395.31
2022-10-25T20:09:02.169Z,100396.19
2022-10-25T20:11:31.470Z,100388.22
2022-10-25T20:14:01.864Z,100389.94
2022-10-25T20:16:30.846Z,100390.88
2022-10-25T20:19:02.718Z,100390.00
2022-10-25T20:21:33.901Z,100397.09
2022-10-25T20:24:05.963Z,100393.53
2022-10-25T20:26:41.212Z,100402.38
2022-10-25T20:29:18.631Z,100406.78
2022-10-25T20:31:50.927Z,100399.72
2022-10-25T20:34:20.148Z,100402.34
2022-10-25T20:36:48.943Z,100394.41
2022-10-25T20:39:16.821Z,100394.38
2022-10-25T20:41:45.184Z,100383.72
2022-10-25T20:44:14.779Z,100396.97
2022-10-25T20:46:42.810Z,100392.53
2022-10-25T20:49:10.697Z,100391.63
2022-10-25T20:51:38.697Z,100402.22
2022-10-25T20:54:09.734Z,100396.06
2022-10-25T20:56:39.670Z,100393.34
2022-10-25T20:59:08.498Z,100403.03
2022-10-25T21:01:36.662Z,100403.06
2022-10-25T21:04:05.283Z,100415.44
2022-10-25T21:06:33.169Z,100413.69
2022-10-25T21:09:01.588Z,100415.47
2022-10-25T21:11:29.425Z,100403.91
2022-10-25T21:13:57.240Z,100406.53
2022-10-25T21:16:25.249Z,100403.00
2022-10-25T21:18:53.442Z,100406.50
2022-10-25T21:21:21.647Z,100397.63
2022-10-25T21:23:57.034Z,100397.63
2022-10-25T21:26:25.451Z,100409.03
2022-10-25T21:28:53.131Z,100429.50
2022-10-25T21:31:21.140Z,100434.81
2022-10-25T21:33:50.277Z,100439.22
2022-10-25T21:36:20.769Z,100449.84
2022-10-25T21:38:49.324Z,100444.56
2022-10-25T21:41:23.461Z,100441.06
2022-10-25T21:43:51.350Z,100440.22
2022-10-25T21:46:21.662Z,100443.72
2022-10-25T21:48:52.874Z,100454.31
2022-10-25T21:51:24.411Z,100461.41
2022-10-25T21:56:31.165Z,100461.41
2022-10-25T21:59:00.436Z,100450.81
2022-10-25T22:01:31.126Z,100458.78
2022-10-25T22:03:59.750Z,100451.75
2022-10-25T22:06:28.080Z,100453.53
2022-10-25T22:08:57.004Z,100455.31
2022-10-25T22:11:32.290Z,100456.22
2022-10-25T22:14:08.604Z,100454.41
2022-10-25T22:16:36.962Z,100443.81
2022-10-25T22:19:08.805Z,100449.97
2022-10-25T22:21:39.023Z,100442.94
2022-10-25T22:24:09.268Z,100447.38
2022-10-25T22:26:40.091Z,100445.63
2022-10-25T22:29:11.800Z,100435.97
2022-10-25T22:31:40.246Z,100435.09
2022-10-25T22:34:09.530Z,100435.09
2022-10-25T22:36:41.985Z,100439.50
2022-10-25T22:39:10.401Z,100431.56
2022-10-25T22:41:38.375Z,100434.25
2022-10-25T22:44:08.152Z,100438.66
2022-10-25T22:46:36.445Z,100432.47
2022-10-25T22:49:08.400Z,100440.41
2022-10-25T22:51:38.428Z,100455.44
2022-10-25T22:54:06.873Z,100457.22
2022-10-25T22:56:34.840Z,100454.56
2022-10-25T22:59:06.298Z,100460.72
2022-10-25T23:01:37.831Z,100458.94
2022-10-25T23:04:09.105Z,100464.25
2022-10-25T23:06:39.828Z,100461.63
2022-10-25T23:09:10.696Z,100459.88
2022-10-25T23:11:40.943Z,100468.75
2022-10-25T23:14:14.872Z,100463.41
2022-10-25T23:16:46.622Z,100462.53
2022-10-25T23:19:14.867Z,100458.16
2022-10-25T23:21:42.830Z,100469.72
2022-10-25T23:24:11.014Z,100474.16
2022-10-25T23:26:39.039Z,100481.16
2022-10-25T23:29:06.944Z,100487.34
2022-10-25T23:31:34.993Z,100494.38
2022-10-25T23:34:02.917Z,100484.63
2022-10-25T23:36:37.680Z,100494.38
2022-10-25T23:39:08.276Z,100482.06
2022-10-25T23:41:36.584Z,100482.13
2022-10-25T23:44:04.788Z,100472.38
2022-10-25T23:46:32.667Z,100483.88
2022-10-25T23:49:00.477Z,100482.13
2022-10-25T23:51:28.356Z,100492.75
2022-10-25T23:53:56.186Z,100486.56
2022-10-25T23:56:24.519Z,100480.31
2022-10-25T23:58:54.022Z,100488.31
